createdAt,value
2018-07-05T00:01:37.271Z,15.80
2018-07-05T00:04:23.287Z,15.80
2018-07-05T00:07:09.459Z,15.80
2018-07-05T00:09:55.677Z,15.90
2018-07-05T00:12:42.051Z,15.80
2018-07-05T00:15:28.378Z,15.80
2018-07-05T00:18:14.706Z,15.90
2018-07-05T00:21:01.017Z,15.80
2018-07-05T00:23:47.112Z,15.70
2018-07-05T00:26:33.727Z,15.60
2018-07-05T00:29:19.902Z,15.70
2018-07-05T00:32:06.063Z,15.60
2018-07-05T00:34:52.239Z,15.60
2018-07-05T00:37:38.374Z,15.70
2018-07-05T00:40:24.610Z,15.70
2018-07-05T00:43:10.899Z,15.60
2018-07-05T00:45:57.106Z,15.70
2018-07-05T00:51:32.393Z,15.70
2018-07-05T00:54:18.528Z,15.70
2018-07-05T00:57:04.511Z,15.70
2018-07-05T00:59:50.726Z,15.60
2018-07-05T01:02:37.099Z,15.50
2018-07-05T01:05:23.518Z,15.50
2018-07-05T01:08:09.814Z,15.50
2018-07-05T01:10:56.204Z,15.50
2018-07-05T01:13:42.474Z,15.50
2018-07-05T01:16:44.959Z,15.50
2018-07-05T01:19:31.022Z,15.50
2018-07-05T01:22:17.238Z,15.50
2018-07-05T01:27:43.594Z,15.50
2018-07-05T01:30:29.986Z,15.40
2018-07-05T01:33:16.186Z,15.40
2018-07-05T01:36:02.430Z,15.40
2018-07-05T01:38:48.702Z,15.40
2018-07-05T01:41:34.954Z,15.40
2018-07-05T01:44:21.213Z,15.30
2018-07-05T01:47:07.406Z,15.20
2018-07-05T01:49:53.450Z,15.30
2018-07-05T01:52:40.060Z,15.30
2018-07-05T01:55:26.260Z,15.30
2018-07-05T01:58:12.455Z,15.30
2018-07-05T02:00:58.551Z,15.30
2018-07-05T02:03:44.931Z,15.20
2018-07-05T02:06:31.099Z,15.00
2018-07-05T02:09:17.271Z,14.90
2018-07-05T02:12:03.626Z,14.80
2018-07-05T02:14:49.799Z,14.80
2018-07-05T02:17:35.894Z,14.80
2018-07-05T02:20:22.042Z,14.70
2018-07-05T02:23:08.174Z,14.70
2018-07-05T02:25:54.469Z,14.60
2018-07-05T02:28:40.790Z,14.60
2018-07-05T02:31:27.087Z,14.60
2018-07-05T02:34:13.421Z,14.60
2018-07-05T02:36:59.718Z,14.50
2018-07-05T02:39:49.190Z,14.60
2018-07-05T02:42:35.472Z,14.60
2018-07-05T02:45:21.682Z,14.70
2018-07-05T02:48:07.890Z,14.60
2018-07-05T02:50:54.198Z,14.60
2018-07-05T02:54:17.389Z,14.60
2018-07-05T02:57:03.639Z,14.50
2018-07-05T02:59:49.758Z,14.50
2018-07-05T03:02:35.910Z,14.40
2018-07-05T03:05:22.102Z,14.50
2018-07-05T03:08:08.370Z,14.50
2018-07-05T03:10:54.605Z,14.50
2018-07-05T03:13:41.359Z,14.50
2018-07-05T03:16:27.816Z,14.50
2018-07-05T03:19:14.151Z,14.50
2018-07-05T03:22:01.522Z,14.50
2018-07-05T03:24:47.648Z,14.40
2018-07-05T03:27:33.992Z,14.40
2018-07-05T03:30:20.218Z,14.40
2018-07-05T03:33:06.841Z,14.40
2018-07-05T03:35:53.119Z,14.40
2018-07-05T03:38:39.455Z,14.40
2018-07-05T03:41:25.606Z,14.30
2018-07-05T03:44:11.862Z,14.40
2018-07-05T03:46:58.024Z,14.40
2018-07-05T03:49:44.262Z,14.40
2018-07-05T03:55:10.682Z,14.30
2018-07-05T03:57:56.870Z,14.20
2018-07-05T04:00:43.114Z,14.30
2018-07-05T04:03:29.378Z,14.30
2018-07-05T04:06:15.530Z,14.40
2018-07-05T04:09:01.968Z,14.40
2018-07-05T04:11:48.292Z,14.40
2018-07-05T04:17:54.240Z,14.60
2018-07-05T04:20:40.565Z,14.60
2018-07-05T04:23:26.687Z,14.60
2018-07-05T04:26:13.133Z,14.80
2018-07-05T04:28:59.368Z,15.00
2018-07-05T04:31:45.438Z,15.00
2018-07-05T04:34:31.629Z,14.90
2018-07-05T04:37:17.649Z,15.00
2018-07-05T04:40:03.939Z,15.10
2018-07-05T04:42:50.115Z,15.10
2018-07-05T04:45:36.383Z,15.10
2018-07-05T04:48:22.558Z,15.00
2018-07-05T04:51:08.774Z,15.10
2018-07-05T04:53:55.097Z,15.20
2018-07-05T04:56:42.050Z,15.20
2018-07-05T04:59:28.162Z,15.40
2018-07-05T05:02:14.506Z,15.30
2018-07-05T05:05:00.726Z,15.40
2018-07-05T05:07:46.272Z,15.50
2018-07-05T05:10:32.530Z,15.50
2018-07-05T05:13:18.974Z,15.70
2018-07-05T05:18:48.208Z,16.20
2018-07-05T05:21:34.794Z,16.50
2018-07-05T05:27:01.857Z,16.60
2018-07-05T05:29:48.052Z,16.90
2018-07-05T05:32:34.422Z,16.70
2018-07-05T05:35:21.400Z,16.90
2018-07-05T05:38:07.626Z,16.90
2018-07-05T05:40:54.223Z,16.90
2018-07-05T05:43:40.350Z,16.80
2018-07-05T05:46:27.085Z,16.50
2018-07-05T05:49:13.438Z,16.10
2018-07-05T05:52:08.863Z,16.10
2018-07-05T05:54:55.454Z,16.10
2018-07-05T05:57:41.839Z,16.40
2018-07-05T06:00:28.081Z,16.40
2018-07-05T06:03:14.596Z,16.50
2018-07-05T06:06:01.074Z,16.40
2018-07-05T06:08:47.261Z,16.40
2018-07-05T06:11:34.170Z,16.50
2018-07-05T06:14:20.522Z,16.50
2018-07-05T06:17:07.064Z,16.80
2018-07-05T06:19:53.549Z,17.20
2018-07-05T06:22:39.973Z,17.20
2018-07-05T06:25:26.281Z,17.20
2018-07-05T06:28:12.591Z,17.40
2018-07-05T06:30:58.935Z,17.50
2018-07-05T06:33:45.262Z,17.80
2018-07-05T06:36:31.515Z,17.90
2018-07-05T06:39:18.018Z,17.90
2018-07-05T06:42:04.242Z,18.00
2018-07-05T06:44:50.485Z,18.60
2018-07-05T06:47:36.659Z,18.50
2018-07-05T06:50:23.085Z,18.60
2018-07-05T06:53:09.335Z,18.90
2018-07-05T06:55:55.859Z,19.00
2018-07-05T06:58:42.261Z,19.40
2018-07-05T07:01:28.686Z,19.40
2018-07-05T07:04:14.962Z,19.30
2018-07-05T07:07:01.221Z,19.30
2018-07-05T07:09:47.403Z,19.70
2018-07-05T07:12:34.022Z,20.30
2018-07-05T07:15:20.173Z,19.90
2018-07-05T07:18:06.513Z,19.40
2018-07-05T07:20:52.845Z,20.10
2018-07-05T07:23:38.967Z,19.80
2018-07-05T07:26:25.272Z,19.60
2018-07-05T07:29:12.605Z,20.00
2018-07-05T07:34:39.020Z,20.70
2018-07-05T07:37:25.327Z,20.60
2018-07-05T07:40:11.551Z,19.80
2018-07-05T07:42:45.339Z,19.80
2018-07-05T07:45:13.011Z,19.50
2018-07-05T07:47:40.768Z,20.30
2018-07-05T07:50:08.874Z,20.80
2018-07-05T07:52:36.546Z,20.80
2018-07-05T07:55:04.239Z,21.00
2018-07-05T07:57:31.910Z,21.80
2018-07-05T07:59:59.582Z,21.80
2018-07-05T08:02:27.269Z,21.50
2018-07-05T08:04:54.939Z,21.90
2018-07-05T08:07:22.632Z,22.60
2018-07-05T08:09:50.310Z,22.90
2018-07-05T08:14:46.326Z,23.20
2018-07-05T08:17:13.994Z,23.20
2018-07-05T08:19:41.765Z,23.30
2018-07-05T08:22:09.638Z,23.30
2018-07-05T08:24:37.353Z,23.40
2018-07-05T08:27:05.364Z,23.50
2018-07-05T08:29:33.042Z,23.50
2018-07-05T08:32:00.731Z,23.60
2018-07-05T08:34:28.430Z,23.60
2018-07-05T08:36:56.104Z,23.70
2018-07-05T08:39:24.025Z,23.70
2018-07-05T08:41:51.694Z,23.70
2018-07-05T08:44:19.375Z,23.70
2018-07-05T08:46:47.042Z,23.80
2018-07-05T08:49:14.730Z,23.80
2018-07-05T08:51:42.654Z,23.80
2018-07-05T08:54:10.330Z,23.80
2018-07-05T08:56:38.018Z,23.90
2018-07-05T08:59:05.723Z,23.90
2018-07-05T09:04:01.491Z,24.00
2018-07-05T09:06:29.154Z,24.00
2018-07-05T09:08:56.834Z,24.00
2018-07-05T09:11:24.542Z,24.00
2018-07-05T09:13:52.239Z,24.00
2018-07-05T09:16:19.915Z,24.10
2018-07-05T09:21:15.497Z,24.10
2018-07-05T09:23:43.446Z,24.20
2018-07-05T09:26:11.102Z,24.20
2018-07-05T09:28:38.855Z,24.20
2018-07-05T09:31:06.579Z,24.20
2018-07-05T09:33:34.509Z,24.20
2018-07-05T09:36:02.190Z,24.30
2018-07-05T09:38:29.851Z,24.30
2018-07-05T09:40:57.524Z,24.30
2018-07-05T09:43:25.186Z,24.30
2018-07-05T09:45:52.862Z,24.40
2018-07-05T09:48:20.541Z,24.40
2018-07-05T09:50:48.210Z,24.50
2018-07-05T09:53:16.438Z,24.50
2018-07-05T09:55:44.147Z,24.50
2018-07-05T09:58:11.802Z,24.50
2018-07-05T10:00:44.746Z,24.60
2018-07-05T10:03:12.411Z,24.60
2018-07-05T10:05:40.114Z,24.60
2018-07-05T10:08:07.775Z,24.60
2018-07-05T10:10:35.451Z,24.70
2018-07-05T10:13:03.221Z,24.60
2018-07-05T10:15:30.794Z,24.70
2018-07-05T10:20:26.358Z,24.70
2018-07-05T10:25:21.953Z,24.70
2018-07-05T10:27:49.619Z,24.80
2018-07-05T10:30:29.636Z,24.80
2018-07-05T10:35:43.843Z,24.90
2018-07-05T10:38:11.511Z,24.90
2018-07-05T10:40:51.423Z,24.90
2018-07-05T10:43:37.758Z,24.90
2018-07-05T10:46:24.060Z,24.90
2018-07-05T10:49:10.120Z,25.00
2018-07-05T10:51:56.285Z,25.00
2018-07-05T10:54:42.446Z,25.00
2018-07-05T10:57:28.750Z,25.10
2018-07-05T11:00:14.771Z,25.10
2018-07-05T11:03:00.902Z,25.20
2018-07-05T11:05:47.074Z,25.20
2018-07-05T11:08:33.434Z,25.30
2018-07-05T11:11:19.656Z,25.30
2018-07-05T11:14:05.853Z,25.30
2018-07-05T11:16:52.044Z,25.30
2018-07-05T11:19:38.249Z,25.40
2018-07-05T11:22:25.390Z,25.40
2018-07-05T11:25:11.639Z,25.50
2018-07-05T11:27:57.696Z,25.50
2018-07-05T11:30:43.722Z,25.50
2018-07-05T11:33:30.028Z,25.60
2018-07-05T11:36:16.662Z,25.60
2018-07-05T11:39:03.313Z,25.60
2018-07-05T11:41:49.628Z,25.70
2018-07-05T11:44:35.787Z,25.70
2018-07-05T11:47:22.096Z,25.70
2018-07-05T11:50:08.682Z,25.80
2018-07-05T11:52:54.726Z,25.80
2018-07-05T11:55:40.830Z,25.90
2018-07-05T11:58:27.035Z,25.90
2018-07-05T12:01:13.254Z,25.90
2018-07-05T12:03:59.368Z,26.00
2018-07-05T12:06:45.653Z,26.00
2018-07-05T12:09:31.818Z,26.00
2018-07-05T12:12:17.954Z,26.00
2018-07-05T12:15:04.059Z,26.00
2018-07-05T12:17:50.322Z,26.00
2018-07-05T12:20:36.953Z,26.00
2018-07-05T12:23:22.997Z,26.00
2018-07-05T12:26:09.310Z,26.00
2018-07-05T12:28:56.261Z,26.00
2018-07-05T12:31:42.408Z,26.00
2018-07-05T12:34:28.659Z,26.00
2018-07-05T12:37:14.979Z,26.00
2018-07-05T12:40:01.095Z,26.10
2018-07-05T12:42:47.765Z,26.10
2018-07-05T12:45:33.962Z,26.00
2018-07-05T12:48:20.295Z,26.10
2018-07-05T12:51:06.410Z,26.10
2018-07-05T12:53:52.596Z,26.10
2018-07-05T12:56:38.702Z,26.10
2018-07-05T12:59:24.729Z,26.20
2018-07-05T13:02:11.103Z,26.20
2018-07-05T13:04:57.498Z,26.20
2018-07-05T13:07:43.702Z,26.20
2018-07-05T13:10:29.874Z,26.20
2018-07-05T13:13:16.171Z,26.20
2018-07-05T13:16:02.431Z,26.30
2018-07-05T13:18:48.803Z,26.40
2018-07-05T13:21:35.122Z,26.30
2018-07-05T13:24:21.327Z,26.40
2018-07-05T13:27:07.446Z,26.50
2018-07-05T13:29:53.593Z,26.50
2018-07-05T13:32:39.945Z,26.50
2018-07-05T13:35:26.246Z,26.50
2018-07-05T13:38:12.583Z,26.50
2018-07-05T13:40:58.730Z,26.50
2018-07-05T13:43:44.866Z,26.50
2018-07-05T13:46:31.155Z,26.50
2018-07-05T13:49:17.416Z,26.50
2018-07-05T13:52:03.543Z,26.50
2018-07-05T13:54:49.827Z,26.50
2018-07-05T13:57:36.376Z,26.50
2018-07-05T14:00:22.833Z,26.50
2018-07-05T14:03:09.099Z,26.50
2018-07-05T14:05:55.638Z,26.50
2018-07-05T14:08:42.626Z,26.50
2018-07-05T14:11:28.997Z,26.50
2018-07-05T14:14:16.147Z,26.50
2018-07-05T14:17:02.649Z,26.50
2018-07-05T14:19:48.862Z,26.60
2018-07-05T14:22:35.210Z,26.60
2018-07-05T14:25:21.394Z,26.60
2018-07-05T14:28:07.549Z,26.60
2018-07-05T14:30:53.891Z,26.60
2018-07-05T14:33:40.483Z,26.60
2018-07-05T14:36:26.610Z,26.60
2018-07-05T14:39:12.720Z,26.60
2018-07-05T14:41:58.853Z,26.60
2018-07-05T14:44:45.052Z,26.50
2018-07-05T14:47:31.130Z,26.60
2018-07-05T14:50:17.190Z,26.60
2018-07-05T14:53:03.239Z,26.60
2018-07-05T14:55:49.338Z,26.60
2018-07-05T14:58:35.599Z,26.60
2018-07-05T15:01:21.766Z,26.60
2018-07-05T15:04:08.162Z,26.60
2018-07-05T15:06:54.377Z,26.60
2018-07-05T15:09:40.553Z,26.60
2018-07-05T15:15:06.878Z,26.50
2018-07-05T15:17:53.210Z,26.50
2018-07-05T15:20:39.298Z,26.60
2018-07-05T15:23:25.698Z,26.60
2018-07-05T15:26:12.039Z,26.60
2018-07-05T15:28:58.398Z,26.60
2018-07-05T15:31:44.511Z,26.50
2018-07-05T15:34:30.974Z,26.60
2018-07-05T15:39:57.597Z,26.60
2018-07-05T15:42:43.860Z,26.50
2018-07-05T15:45:30.159Z,26.50
2018-07-05T15:48:16.246Z,26.50
2018-07-05T15:51:02.458Z,26.60
2018-07-05T15:53:48.654Z,26.50
2018-07-05T15:56:34.856Z,26.60
2018-07-05T15:59:21.090Z,26.50
2018-07-05T16:02:07.274Z,26.50
2018-07-05T16:04:53.818Z,26.50
2018-07-05T16:07:39.995Z,26.50
2018-07-05T16:10:26.227Z,26.50
2018-07-05T16:13:12.365Z,26.50
2018-07-05T16:15:58.513Z,26.50
2018-07-05T16:18:44.890Z,26.50
2018-07-05T16:21:31.078Z,26.50
2018-07-05T16:24:17.319Z,26.50
2018-07-05T16:27:03.923Z,26.50
2018-07-05T16:29:50.442Z,26.50
2018-07-05T16:32:37.630Z,26.50
2018-07-05T16:35:23.843Z,26.50
2018-07-05T16:38:10.151Z,26.50
2018-07-05T16:40:56.421Z,26.50
2018-07-05T16:43:42.656Z,26.50
2018-07-05T16:46:28.865Z,26.50
2018-07-05T16:49:15.008Z,26.50
2018-07-05T16:52:01.095Z,26.50
2018-07-05T16:54:47.302Z,26.50
2018-07-05T16:57:33.545Z,26.40
2018-07-05T17:00:19.890Z,26.40
2018-07-05T17:03:06.192Z,26.50
2018-07-05T17:05:52.285Z,26.40
2018-07-05T17:08:38.644Z,26.50
2018-07-05T17:11:25.111Z,26.50
2018-07-05T17:14:11.456Z,26.50
2018-07-05T17:16:57.753Z,26.50
2018-07-05T17:19:44.187Z,26.50
2018-07-05T17:25:10.882Z,26.50
2018-07-05T17:27:57.176Z,26.60
2018-07-05T17:30:43.496Z,26.60
2018-07-05T17:33:29.682Z,26.70
2018-07-05T17:36:15.714Z,26.90
2018-07-05T17:39:01.818Z,27.20
2018-07-05T17:41:48.033Z,27.60
2018-07-05T17:44:34.303Z,28.00
2018-07-05T17:47:20.785Z,28.30
2018-07-05T17:50:07.066Z,28.40
2018-07-05T17:52:53.345Z,28.50
2018-07-05T17:55:39.442Z,28.60
2018-07-05T17:58:25.602Z,28.70
2018-07-05T18:01:11.790Z,28.70
2018-07-05T18:03:58.070Z,28.80
2018-07-05T18:06:44.154Z,28.80
2018-07-05T18:09:30.553Z,28.70
2018-07-05T18:12:16.802Z,28.80
2018-07-05T18:15:03.026Z,28.80
2018-07-05T18:17:49.302Z,28.80
2018-07-05T18:20:35.418Z,28.80
2018-07-05T18:23:21.772Z,28.80
2018-07-05T18:26:07.809Z,28.80
2018-07-05T18:28:53.870Z,28.80
2018-07-05T18:31:40.231Z,28.80
2018-07-05T18:34:26.475Z,28.70
2018-07-05T18:37:12.932Z,28.70
2018-07-05T18:39:59.154Z,28.70
2018-07-05T18:42:45.572Z,28.60
2018-07-05T18:45:31.856Z,28.50
2018-07-05T18:48:18.174Z,28.50
2018-07-05T18:51:04.691Z,28.30
2018-07-05T18:53:50.845Z,28.00
2018-07-05T18:56:37.011Z,27.60
2018-07-05T18:59:23.196Z,27.30
2018-07-05T19:04:49.462Z,27.00
2018-07-05T19:07:35.675Z,26.90
2018-07-05T19:10:21.770Z,26.80
2018-07-05T19:13:07.946Z,26.70
2018-07-05T19:15:54.160Z,26.60
2018-07-05T19:18:40.501Z,26.50
2018-07-05T19:21:26.680Z,26.50
2018-07-05T19:24:12.871Z,26.50
2018-07-05T19:26:59.227Z,26.50
2018-07-05T19:29:45.444Z,26.40
2018-07-05T19:32:32.035Z,26.40
2018-07-05T19:35:18.263Z,26.40
2018-07-05T19:38:04.475Z,26.30
2018-07-05T19:40:50.750Z,26.20
2018-07-05T19:43:36.914Z,26.20
2018-07-05T19:46:23.102Z,26.20
2018-07-05T19:49:09.422Z,26.20
2018-07-05T19:51:55.763Z,26.10
2018-07-05T19:54:42.303Z,26.10
2018-07-05T19:57:28.346Z,26.00
2018-07-05T20:00:14.598Z,25.90
2018-07-05T20:03:01.076Z,25.80
2018-07-05T20:05:47.319Z,25.70
2018-07-05T20:08:33.358Z,25.70
2018-07-05T20:11:19.707Z,25.60
2018-07-05T20:14:08.457Z,25.50
2018-07-05T20:16:54.573Z,25.40
2018-07-05T20:19:40.660Z,25.30
2018-07-05T20:22:27.043Z,25.20
2018-07-05T20:25:13.301Z,25.10
2018-07-05T20:27:59.766Z,25.10
2018-07-05T20:30:45.873Z,25.10
2018-07-05T20:33:32.016Z,25.10
2018-07-05T20:36:18.218Z,25.00
2018-07-05T20:39:05.431Z,25.00
2018-07-05T20:41:51.657Z,24.90
2018-07-05T20:44:37.698Z,24.90
2018-07-05T20:47:24.036Z,24.90
2018-07-05T20:50:10.119Z,24.90
2018-07-05T20:52:56.372Z,24.90
2018-07-05T20:55:42.649Z,24.80
2018-07-05T20:58:28.690Z,24.80
2018-07-05T21:01:14.830Z,24.80
2018-07-05T21:04:01.112Z,24.70
2018-07-05T21:06:47.448Z,24.70
2018-07-05T21:09:33.651Z,24.70
2018-07-05T21:12:19.874Z,24.70
2018-07-05T21:15:06.006Z,24.70
2018-07-05T21:17:52.181Z,24.60
2018-07-05T21:20:38.338Z,24.70
2018-07-05T21:23:24.510Z,24.60
2018-07-05T21:26:10.737Z,24.60
2018-07-05T21:28:57.111Z,24.60
2018-07-05T21:31:43.221Z,24.50
2018-07-05T21:34:29.376Z,24.60
2018-07-05T21:37:15.558Z,24.50
2018-07-05T21:40:01.691Z,24.50
2018-07-05T21:42:47.746Z,24.50
2018-07-05T21:45:33.795Z,24.50
2018-07-05T21:48:20.090Z,24.50
2018-07-05T21:51:06.230Z,24.50
2018-07-05T21:53:52.294Z,24.50
2018-07-05T21:56:38.445Z,24.50
2018-07-05T21:59:24.655Z,24.40
2018-07-05T22:02:10.646Z,24.40
2018-07-05T22:04:57.157Z,24.40
2018-07-05T22:07:43.759Z,24.40
2018-07-05T22:10:30.155Z,24.40
2018-07-05T22:13:16.390Z,24.40
2018-07-05T22:16:02.627Z,24.40
2018-07-05T22:18:54.366Z,24.40
2018-07-05T22:21:46.143Z,24.30
2018-07-05T22:25:35.964Z,24.30
2018-07-05T22:28:27.793Z,24.30
2018-07-05T22:36:39.977Z,24.20
2018-07-05T22:39:26.315Z,24.20
2018-07-05T22:42:12.385Z,24.20
2018-07-05T22:44:58.425Z,24.20
2018-07-05T22:47:44.452Z,24.20
2018-07-05T22:50:30.610Z,24.20
2018-07-05T22:53:16.704Z,24.20
2018-07-05T22:56:03.158Z,24.20
2018-07-05T23:01:29.583Z,24.10
2018-07-05T23:04:15.748Z,24.20
2018-07-05T23:07:01.948Z,24.10
2018-07-05T23:09:48.014Z,24.10
2018-07-05T23:12:34.224Z,24.10
2018-07-05T23:15:20.330Z,24.10
2018-07-05T23:18:06.418Z,24.00
2018-07-05T23:20:52.638Z,24.10
2018-07-05T23:23:38.966Z,24.00
2018-07-05T23:26:25.227Z,24.00
2018-07-05T23:29:11.503Z,24.00
2018-07-05T23:34:37.851Z,24.00
2018-07-05T23:37:23.963Z,23.90
2018-07-05T23:40:10.027Z,23.90
2018-07-05T23:42:56.179Z,23.90
2018-07-05T23:45:42.364Z,23.90
2018-07-05T23:48:28.465Z,23.90
2018-07-05T23:51:14.682Z,23.90
2018-07-05T23:54:00.811Z,23.90
2018-07-05T23:56:47.652Z,23.90
2018-07-05T23:59:34.191Z,23.90
